Latest Weather Observations for Alva Beach

IDQ60801

Issued at 10:35 pm EST Friday 24 October 2014 (issued every 30 minutes, with the page automatically refreshed every 10 minutes)

About weather observations | Map of weather stations | Latest weather observations for QLD | Other Formats
Station Details ID: 033295 Name: ALVA BEACH Lat: -19.46 Lon: 147.48 Height: 7.5 m
Data from the previous 72 hours. | See also: Recent months at Alva Beach
Date/Time
EST
Temp
°C
App
Temp
°C
Dew
Point
Rel
Hum
%
Delta-T
°C
Wind Press
QNH
hPa
Press
MSL
hPa
Rain
since 9 am
mm
Dir
 
Spd
km/h
Gust
km/h
Spd
kts
Gust
kts
24/10:30pm 22.6 20.6 16.4 68 3.8 E 22 30 12 16 1020.0 1020.0 0.0
24/10:00pm 22.7 20.4 16.7 69 3.7 E 24 33 13 18 1019.9 1019.9 0.0
24/09:30pm 22.6 19.2 15.7 65 4.1 E 28 35 15 19 1019.7 1019.7 0.0
24/09:00pm 22.5 18.6 15.6 65 4.1 E 30 39 16 21 1019.4 1019.4 0.0
24/08:30pm 22.6 18.4 15.7 65 4.1 E 32 41 17 22 1019.0 1019.0 0.0
24/08:00pm 23.0 20.5 17.0 69 3.7 E 26 35 14 19 1018.8 1018.8 0.0
24/07:30pm 22.9 19.5 16.7 68 3.8 E 30 43 16 23 1018.4 1018.4 0.0
24/07:00pm 22.8 20.1 16.6 68 3.8 E 26 37 14 20 1018.1 1018.1 0.0
24/06:30pm 22.8 19.9 16.1 66 4.1 E 26 37 14 20 1018.0 1018.0 0.0
24/06:00pm 22.9 19.8 15.7 64 4.3 E 26 33 14 18 1018.0 1018.0 0.0
24/05:30pm 23.5 20.3 16.3 64 4.4 E 28 35 15 19 1017.7 1017.7 0.0
24/05:00pm 23.7 21.4 15.7 61 4.8 E 22 30 12 16 1017.3 1017.3 0.0
24/04:30pm 24.1 22.0 15.1 57 5.4 E 20 28 11 15 1017.1 1017.1 0.0
24/04:00pm 24.6 22.4 14.4 53 6.0 E 19 26 10 14 1017.0 1017.0 0.0
24/03:30pm 24.9 23.3 16.1 58 5.4 E 19 26 10 14 1017.1 1017.1 0.0
24/03:00pm 24.5 22.5 14.0 52 6.2 E 17 24 9 13 1017.1 1017.1 0.0
24/02:30pm 24.9 22.1 14.4 52 6.2 ENE 22 30 12 16 1017.3 1017.3 0.0
24/02:00pm 25.0 22.6 14.5 52 6.2 ENE 20 30 11 16 1017.6 1017.6 0.0
24/01:30pm 24.7 22.4 14.2 52 6.2 E 19 24 10 13 1018.0 1018.0 0.0
24/01:00pm 25.4 23.5 15.1 53 6.2 E 19 24 10 13 1018.4 1018.4 0.0
24/12:30pm 24.5 22.3 13.4 50 6.5 E 17 22 9 12 1018.8 1018.8 0.0
24/12:00pm 25.1 23.0 13.6 49 6.7 E 17 22 9 12 1019.2 1019.2 0.0
24/11:30am 25.5 24.4 14.3 50 6.7 ESE 13 22 7 12 1019.4 1019.4 0.0
24/11:00am 25.7 24.1 13.9 48 7.0 ESE 15 24 8 13 1019.7 1019.7 0.0
24/10:30am 24.8 23.6 14.0 51 6.4 ESE 13 20 7 11 1019.8 1019.8 0.0
24/10:00am 24.6 23.4 14.1 52 6.2 SE 13 19 7 10 1020.0 1020.0 0.0
24/09:30am 24.5 23.0 13.1 49 6.6 ESE 13 20 7 11 1020.1 1020.1 0.0
24/09:00am 23.9 22.9 14.6 56 5.5 SE 13 20 7 11 1020.2 1020.2 0.0
24/08:30am 23.4 22.5 13.8 54 5.6 SE 11 20 6 11 1020.1 1020.1 0.0
24/08:00am 23.4 23.2 14.7 58 5.1 SE 9 17 5 9 1020.1 1020.1 0.0
24/07:30am 22.2 22.0 14.8 63 4.4 SSE 9 17 5 9 1019.8 1019.8 0.0
24/07:00am 20.0 20.1 15.4 75 2.7 S 9 15 5 8 1019.6 1019.6 0.0
24/06:30am 17.7 17.8 15.5 87 1.3 S 9 15 5 8 1019.3 1019.3 0.0
24/06:00am 16.0 15.7 14.4 90 0.9 S 9 13 5 7 1019.0 1019.0 0.0
24/05:30am 15.7 15.2 13.9 89 1.0 SSW 9 11 5 6 1018.8 1018.8 0.0
24/05:00am 16.0 15.8 13.7 86 1.3 SSW 7 9 4 5 1018.3 1018.3 0.0
24/04:30am 16.5 16.0 13.8 84 1.5 SSW 9 13 5 7 1018.1 1018.1 0.0
24/04:00am 16.9 16.7 13.6 81 1.9 SSW 7 11 4 6 1018.0 1018.0 0.0
24/03:30am 17.7 17.6 14.0 79 2.1 S 7 9 4 5 1017.9 1017.9 0.0
24/03:00am 18.4 17.9 13.9 75 2.6 SSW 9 13 5 7 1017.9 1017.9 0.0
24/02:30am 21.1 20.1 14.7 67 3.7 ESE 13 22 7 12 1018.1 1018.1 0.0
24/02:00am 21.9 19.9 15.0 65 4.1 E 19 26 10 14 1018.2 1018.2 0.0
24/01:30am 21.8 19.5 14.2 62 4.4 E 19 30 10 16 1018.6 1018.6 0.0
24/01:00am 22.3 19.6 14.7 62 4.5 E 22 32 12 17 1018.8 1018.8 0.0
24/12:30am 22.3 20.1 15.9 67 3.9 E 22 30 12 16 1019.1 1019.1 0.0
24/12:00am 22.4 20.4 16.4 69 3.6 E 22 32 12 17 1019.3 1019.3 0.0
 
Date/Time
EST
Temp
°C
App
Temp
°C
Dew
Point
Rel
Hum
%
Delta-T
°C
Wind Press
QNH
hPa
Press
MSL
hPa
Rain
since 9 am
mm
Dir
 
Spd
km/h
Gust
km/h
Spd
kts
Gust
kts
23/11:30pm 22.3 18.8 15.6 66 4.0 E 28 43 15 23 1019.4 1019.4 0.0
23/11:00pm 22.5 18.5 15.1 63 4.4 E 30 39 16 21 1019.4 1019.4 0.0
23/10:30pm 22.6 19.2 15.7 65 4.1 E 28 37 15 20 1019.5 1019.5 0.0
23/10:00pm 22.8 20.2 16.8 69 3.7 E 26 35 14 19 1019.4 1019.4 0.0
23/09:30pm 22.6 19.4 16.4 68 3.8 E 28 37 15 20 1019.3 1019.3 0.0
23/09:00pm 22.6 19.1 16.6 69 3.7 E 30 41 16 22 1018.9 1018.9 0.0
23/08:30pm 22.7 19.1 17.2 71 3.4 E 32 43 17 23 1018.6 1018.6 0.0
23/08:00pm 22.7 19.4 16.9 70 3.5 E 30 43 16 23 1018.2 1018.2 0.0
23/07:30pm 22.8 18.8 16.6 68 3.8 E 33 41 18 22 1017.9 1017.9 0.0
23/07:00pm 22.7 18.4 15.3 63 4.4 E 32 43 17 23 1017.5 1017.5 0.0
23/06:30pm 22.9 18.1 15.7 64 4.3 E 35 46 19 25 1017.0 1017.0 0.0
23/06:00pm 22.8 17.5 15.4 63 4.4 E 37 48 20 26 1016.4 1016.4 0.0
23/05:30pm 23.2 17.7 15.8 63 4.5 E 39 48 21 26 1016.1 1016.1 0.0
23/05:00pm 23.5 18.7 15.5 60 4.8 E 35 48 19 26 1015.6 1015.6 0.0
23/04:30pm 24.2 19.8 15.1 56 5.4 E 32 39 17 21 1015.5 1015.5 0.0
23/04:00pm 24.3 19.7 15.2 57 5.5 E 33 43 18 23 1015.4 1015.4 0.0
23/03:30pm 24.9 21.1 16.6 60 5.1 E 32 39 17 21 1015.5 1015.5 0.0
23/03:00pm 25.1 20.9 15.7 56 5.7 E 32 41 17 22 1015.8 1015.8 0.0
23/02:30pm 25.6 22.0 16.2 56 5.8 E 30 39 16 21 1016.1 1016.1 0.0
23/02:00pm 25.8 22.0 14.6 50 6.7 E 28 35 15 19 1016.2 1016.2 0.0
23/01:30pm 25.9 22.4 14.4 49 6.9 E 26 33 14 18 1016.5 1016.5 0.0
23/01:00pm 25.7 22.9 15.4 53 6.2 E 24 30 13 16 1017.0 1017.0 0.0
23/12:30pm 25.2 23.1 15.2 54 6.0 E 20 28 11 15 1017.7 1017.7 0.0
23/12:00pm 24.8 22.7 15.1 54 5.8 E 20 28 11 15 1018.2 1018.2 0.0
23/11:30am 25.8 24.3 15.2 52 6.4 ESE 17 26 9 14 1018.7 1018.7 0.0
23/11:00am 26.0 24.7 14.8 50 6.7 ESE 15 26 8 14 1019.0 1019.0 0.0
23/10:30am 25.6 24.4 15.0 52 6.4 ESE 15 30 8 16 1019.3 1019.3 0.0
23/10:00am 25.6 24.0 15.0 52 6.4 ESE 17 30 9 16 1019.5 1019.5 0.0
23/09:30am 25.0 23.4 15.9 57 5.5 ESE 19 35 10 19 1019.6 1019.6 0.0
23/09:00am 23.8 20.7 14.5 56 5.5 ESE 24 35 13 19 1019.6 1019.6 0.2
23/08:30am 23.1 20.8 14.7 59 5.0 SE 20 30 11 16 1019.5 1019.5 0.2
23/08:00am 22.8 22.4 15.1 62 4.6 SE 11 20 6 11 1019.4 1019.4 0.2
23/07:30am 21.1 21.0 15.0 68 3.6 S 9 13 5 7 1019.1 1019.1 0.2
23/07:00am 19.8 19.6 14.8 73 2.9 S 9 15 5 8 1019.0 1019.0 0.2
23/06:30am 18.3 18.0 14.4 78 2.2 S 9 15 5 8 1018.7 1018.7 0.2
23/06:00am 17.5 17.2 14.4 82 1.8 S 9 13 5 7 1018.5 1018.5 0.2
23/05:30am 17.2 16.8 14.1 82 1.8 S 9 13 5 7 1018.2 1018.2 0.2
23/05:00am 17.4 16.9 13.9 80 2.0 SSW 9 15 5 8 1018.0 1018.0 0.2
23/04:30am 17.8 17.0 13.9 78 2.2 S 11 15 6 8 1017.8 1017.8 0.2
23/04:00am 18.5 17.9 13.6 73 2.8 SSW 9 13 5 7 1017.7 1017.7 0.2
23/03:30am 21.2 19.9 15.7 71 3.3 SE 17 24 9 13 1017.7 1017.7 0.2
23/03:00am 21.2 19.8 15.5 70 3.4 ESE 17 24 9 13 1017.8 1017.8 0.2
23/02:30am 21.0 19.4 15.1 69 3.5 ESE 17 30 9 16 1017.9 1017.9 0.2
23/02:00am 21.1 18.9 15.0 68 3.6 ESE 20 35 11 19 1018.3 1018.3 0.2
23/01:30am 21.4 19.4 15.5 69 3.5 ESE 20 33 11 18 1018.7 1018.7 0.2
23/01:00am 21.5 20.2 15.8 70 3.4 ESE 17 26 9 14 1018.9 1018.9 0.2
23/12:30am 21.6 19.0 15.0 66 3.9 E 22 35 12 19 1019.3 1019.3 0.2
23/12:00am 22.1 19.4 15.7 67 3.8 E 24 33 13 18 1019.5 1019.5 0.2
 
Date/Time
EST
Temp
°C
App
Temp
°C
Dew
Point
Rel
Hum
%
Delta-T
°C
Wind Press
QNH
hPa
Press
MSL
hPa
Rain
since 9 am
mm
Dir
 
Spd
km/h
Gust
km/h
Spd
kts
Gust
kts
22/11:30pm 22.3 18.9 15.9 67 3.9 E 28 37 15 20 1019.6 1019.6 0.2
22/11:00pm 22.4 18.7 16.0 67 3.9 E 30 41 16 22 1019.8 1019.8 0.2
22/10:30pm 22.4 18.7 16.0 67 3.9 E 30 41 16 22 1019.7 1019.7 0.2
22/10:00pm 22.6 19.3 16.9 70 3.5 E 30 41 16 22 1019.6 1019.6 0.2
22/09:30pm 22.8 19.6 17.3 71 3.4 E 30 37 16 20 1019.4 1019.4 0.2
22/09:00pm 22.8 19.0 16.6 68 3.8 E 32 41 17 22 1019.1 1019.1 0.2
22/08:30pm 22.8 18.6 16.1 66 4.1 E 33 44 18 24 1018.9 1018.9 0.2
22/08:00pm 23.1 19.3 17.1 69 3.7 E 33 44 18 24 1018.7 1018.7 0.2
22/07:30pm 22.9 18.7 16.2 66 4.1 E 33 43 18 23 1018.3 1018.3 0.2
22/07:00pm 22.9 18.1 15.5 63 4.4 E 35 44 19 24 1018.1 1018.1 0.2
22/06:30pm 23.2 18.8 16.7 67 4.0 E 35 48 19 26 1017.8 1017.8 0.2
22/06:00pm 23.2 18.6 16.0 64 4.3 E 35 46 19 25 1017.7 1017.7 0.2
22/05:30pm 23.3 17.5 16.1 64 4.4 E 41 54 22 29 1017.3 1017.3 0.2
22/05:00pm 23.7 18.9 16.5 64 4.4 E 37 48 20 26 1017.3 1017.3 0.2
22/04:30pm 23.9 19.2 15.9 61 4.8 E 35 46 19 25 1017.4 1017.4 0.2
22/04:00pm 24.2 18.5 15.1 56 5.4 E 39 52 21 28 1017.3 1017.3 0.2
22/03:30pm 24.6 19.8 15.5 57 5.5 E 35 46 19 25 1017.2 1017.2 0.2
22/03:00pm 24.9 20.6 15.5 56 5.7 E 32 43 17 23 1017.3 1017.3 0.2
22/02:30pm 25.1 20.5 16.0 57 5.5 E 35 46 19 25 1017.5 1017.5 0.2
22/02:00pm 25.0 20.5 15.3 55 5.8 E 33 44 18 24 1017.8 1017.8 0.2
22/01:30pm 25.4 20.5 13.6 48 6.9 E 32 43 17 23 1018.2 1018.2 0.2
22/01:00pm 25.2 21.6 15.2 54 6.0 E 28 41 15 22 1018.7 1018.7 0.2
22/12:30pm 24.9 21.6 16.1 58 5.4 E 28 37 15 20 1019.1 1019.1 0.2
22/12:00pm 26.3 24.0 15.7 52 6.4 E 22 33 12 18 1019.8 1019.8 0.2
22/11:30am 25.8 24.3 16.4 56 5.8 ESE 19 28 10 15 1020.3 1020.3 0.2
22/11:00am 25.2 23.6 16.6 59 5.3 ESE 20 35 11 19 1020.4 1020.4 0.2
22/10:30am 24.7 23.3 16.9 62 4.8 ESE 20 35 11 19 1020.6 1020.6 0.2
22/10:00am 22.9 22.2 16.4 67 3.9 SE 15 26 8 14 1020.7 1020.7 0.2
22/09:30am 21.6 21.7 16.6 73 3.0 SSE 11 19 6 10 1020.8 1020.8 0.0
22/09:00am 20.6 21.2 18.5 88 1.3 SSE 13 20 7 11 1020.9 1020.9 7.4
22/08:30am 19.7 20.6 18.4 92 0.8 S 11 19 6 10 1020.9 1020.9 7.4
22/08:00am 19.1 19.4 17.9 93 0.7 S 13 20 7 11 1020.8 1020.8 7.4
22/07:30am 19.4 19.8 18.2 93 0.7 SSE 13 22 7 12 1020.5 1020.5 7.0
22/07:00am 18.8 19.4 17.6 93 0.7 S 11 20 6 11 1020.2 1020.2 6.8
22/06:30am 18.9 19.1 17.6 92 0.8 S 13 22 7 12 1019.8 1019.8 5.6
22/06:00am 19.0 19.2 17.7 92 0.8 SSE 13 22 7 12 1019.4 1019.4 5.0
22/05:30am 19.1 20.5 17.8 92 0.8 SSE 7 15 4 8 1018.9 1018.9 4.2
22/05:00am 19.0 19.5 17.5 91 0.9 SSE 11 17 6 9 1018.7 1018.7 3.8
22/04:30am 19.4 17.6 17.9 91 0.9 ESE 24 35 13 19 1018.7 1018.7 3.8
22/04:04am 20.1 17.6 18.0 88 1.3 ESE 28 46 15 25 1018.5 1018.5 3.0
22/04:00am 20.5 19.7 18.4 88 1.3 ESE 20 37 11 20 1018.5 1018.5 3.0
22/03:30am 20.7 19.4 16.9 79 2.3 E 19 28 10 15 1018.4 1018.4 3.0
22/03:00am 19.6 18.3 17.2 86 1.5 E 20 30 11 16 1018.7 1018.7 3.0
22/02:30am 19.1 19.5 17.2 89 1.2 SSE 11 22 6 12 1019.0 1019.0 2.4
22/02:00am 19.6 20.4 17.2 86 1.5 S 9 11 5 6 1019.1 1019.1 1.0
22/01:30am 20.3 20.7 16.3 78 2.4 SSE 9 15 5 8 1019.6 1019.6 1.0
22/01:00am 21.7 21.0 16.4 72 3.2 SE 15 30 8 16 1019.9 1019.9 0.0
22/12:30am 21.9 20.3 16.0 69 3.6 ESE 19 32 10 17 1020.3 1020.3 0.0
22/12:00am 22.0 20.2 16.1 69 3.5 SE 20 35 11 19 1020.7 1020.7 0.0
 
Date/Time
EST
Temp
°C
App
Temp
°C
Dew
Point
Rel
Hum
%
Delta-T
°C
Wind Press
QNH
hPa
Press
MSL
hPa
Rain
since 9 am
mm
Dir
 
Spd
km/h
Gust
km/h
Spd
kts
Gust
kts
21/11:30pm 21.9 19.5 15.5 67 3.8 E 22 32 12 17 1020.9 1020.9 0.0
21/11:00pm 22.1 19.8 15.7 67 3.8 ESE 22 33 12 18 1021.0 1021.0 0.0

Other Formats:

Comma delimited format used in spreadsheet applications
http://www.bom.gov.au/fwo/IDQ60801/IDQ60801.95296.axf

JavaScript Object Notation format (JSON) in row-major order
http://www.bom.gov.au/fwo/IDQ60801/IDQ60801.95296.json